sensor_id;sensor_type;location;lat;lon;timestamp;P1;durP1;ratioP1;P2;durP2;ratioP2
37859;SDS011;23698;52.014;5.190;2024-01-10T00:02:00;3.78;;;1.63;;
37859;SDS011;23698;52.014;5.190;2024-01-10T00:04:48;5.88;;;2.15;;
37859;SDS011;23698;52.014;5.190;2024-01-10T00:07:35;5.20;;;2.22;;
37859;SDS011;23698;52.014;5.190;2024-01-10T00:10:22;3.20;;;1.92;;
37859;SDS011;23698;52.014;5.190;2024-01-10T00:13:09;4.35;;;2.03;;
37859;SDS011;23698;52.014;5.190;2024-01-10T00:15:55;6.70;;;2.13;;
37859;SDS011;23698;52.014;5.190;2024-01-10T00:18:45;3.67;;;1.80;;
37859;SDS011;23698;52.014;5.190;2024-01-10T00:21:31;3.75;;;1.83;;
37859;SDS011;23698;52.014;5.190;2024-01-10T00:24:18;5.03;;;1.98;;
37859;SDS011;23698;52.014;5.190;2024-01-10T00:27:04;4.25;;;1.90;;
37859;SDS011;23698;52.014;5.190;2024-01-10T00:29:51;3.92;;;2.08;;
37859;SDS011;23698;52.014;5.190;2024-01-10T00:32:38;4.32;;;1.80;;
37859;SDS011;23698;52.014;5.190;2024-01-10T00:35:26;5.57;;;2.30;;
37859;SDS011;23698;52.014;5.190;2024-01-10T00:38:13;4.45;;;2.25;;
37859;SDS011;23698;52.014;5.190;2024-01-10T00:40:59;5.25;;;2.17;;
37859;SDS011;23698;52.014;5.190;2024-01-10T00:43:46;4.68;;;1.95;;
37859;SDS011;23698;52.014;5.190;2024-01-10T00:46:32;4.50;;;2.00;;
37859;SDS011;23698;52.014;5.190;2024-01-10T00:49:19;4.60;;;2.03;;
37859;SDS011;23698;52.014;5.190;2024-01-10T00:52:07;5.57;;;2.20;;
37859;SDS011;23698;52.014;5.190;2024-01-10T00:54:54;4.57;;;2.03;;
37859;SDS011;23698;52.014;5.190;2024-01-10T00:57:41;3.60;;;2.17;;
37859;SDS011;23698;52.014;5.190;2024-01-10T01:00:27;3.97;;;1.88;;
37859;SDS011;23698;52.014;5.190;2024-01-10T01:03:14;4.38;;;2.28;;
37859;SDS011;23698;52.014;5.190;2024-01-10T01:06:00;4.38;;;1.80;;
37859;SDS011;23698;52.014;5.190;2024-01-10T01:08:48;5.32;;;2.25;;
37859;SDS011;23698;52.014;5.190;2024-01-10T01:11:35;4.95;;;2.25;;
37859;SDS011;23698;52.014;5.190;2024-01-10T01:14:21;4.20;;;2.33;;
37859;SDS011;23698;52.014;5.190;2024-01-10T01:17:08;5.28;;;2.30;;
37859;SDS011;23698;52.014;5.190;2024-01-10T01:19:55;3.88;;;2.05;;
37859;SDS011;23698;52.014;5.190;2024-01-10T01:22:41;5.90;;;2.55;;
37859;SDS011;23698;52.014;5.190;2024-01-10T01:25:29;5.63;;;2.40;;
37859;SDS011;23698;52.014;5.190;2024-01-10T01:28:16;7.90;;;2.50;;
37859;SDS011;23698;52.014;5.190;2024-01-10T01:31:02;3.75;;;2.08;;
37859;SDS011;23698;52.014;5.190;2024-01-10T01:33:49;5.43;;;2.65;;
37859;SDS011;23698;52.014;5.190;2024-01-10T01:36:36;4.35;;;2.67;;
37859;SDS011;23698;52.014;5.190;2024-01-10T01:39:22;7.53;;;2.33;;
37859;SDS011;23698;52.014;5.190;2024-01-10T01:42:10;5.25;;;2.40;;
37859;SDS011;23698;52.014;5.190;2024-01-10T01:44:57;4.30;;;1.98;;
37859;SDS011;23698;52.014;5.190;2024-01-10T01:47:43;6.43;;;2.97;;
37859;SDS011;23698;52.014;5.190;2024-01-10T01:50:31;3.45;;;2.10;;
37859;SDS011;23698;52.014;5.190;2024-01-10T01:53:18;3.85;;;2.15;;
37859;SDS011;23698;52.014;5.190;2024-01-10T01:56:05;5.88;;;2.25;;
37859;SDS011;23698;52.014;5.190;2024-01-10T01:58:54;6.75;;;2.10;;
37859;SDS011;23698;52.014;5.190;2024-01-10T02:01:42;5.45;;;2.47;;
37859;SDS011;23698;52.014;5.190;2024-01-10T02:04:28;4.97;;;2.28;;
37859;SDS011;23698;52.014;5.190;2024-01-10T02:07:16;6.40;;;2.70;;
37859;SDS011;23698;52.014;5.190;2024-01-10T02:10:03;5.20;;;2.28;;
37859;SDS011;23698;52.014;5.190;2024-01-10T02:12:50;4.07;;;2.47;;
37859;SDS011;23698;52.014;5.190;2024-01-10T02:15:38;5.22;;;2.80;;
37859;SDS011;23698;52.014;5.190;2024-01-10T02:18:25;4.80;;;2.60;;
37859;SDS011;23698;52.014;5.190;2024-01-10T02:21:11;7.07;;;2.30;;
37859;SDS011;23698;52.014;5.190;2024-01-10T02:23:58;4.72;;;1.90;;
37859;SDS011;23698;52.014;5.190;2024-01-10T02:26:46;6.65;;;2.33;;
37859;SDS011;23698;52.014;5.190;2024-01-10T02:29:35;4.68;;;2.55;;
37859;SDS011;23698;52.014;5.190;2024-01-10T02:32:21;4.40;;;1.98;;
37859;SDS011;23698;52.014;5.190;2024-01-10T02:35:08;5.57;;;2.25;;
37859;SDS011;23698;52.014;5.190;2024-01-10T02:37:55;4.65;;;1.80;;
37859;SDS011;23698;52.014;5.190;2024-01-10T02:40:42;5.32;;;2.17;;
37859;SDS011;23698;52.014;5.190;2024-01-10T02:43:30;6.68;;;2.45;;
37859;SDS011;23698;52.014;5.190;2024-01-10T02:46:16;6.10;;;2.33;;
37859;SDS011;23698;52.014;5.190;2024-01-10T02:49:03;4.55;;;2.20;;
37859;SDS011;23698;52.014;5.190;2024-01-10T02:51:50;7.60;;;2.72;;
37859;SDS011;23698;52.014;5.190;2024-01-10T02:54:37;7.07;;;2.60;;
37859;SDS011;23698;52.014;5.190;2024-01-10T02:57:23;5.75;;;2.17;;
37859;SDS011;23698;52.014;5.190;2024-01-10T03:00:12;4.28;;;2.33;;
37859;SDS011;23698;52.014;5.190;2024-01-10T03:02:59;8.18;;;2.50;;
37859;SDS011;23698;52.014;5.190;2024-01-10T03:05:46;6.50;;;2.45;;
37859;SDS011;23698;52.014;5.190;2024-01-10T03:08:33;4.43;;;2.40;;
37859;SDS011;23698;52.014;5.190;2024-01-10T03:11:19;5.57;;;2.67;;
37859;SDS011;23698;52.014;5.190;2024-01-10T03:14:07;6.40;;;2.67;;
37859;SDS011;23698;52.014;5.190;2024-01-10T03:16:56;7.15;;;2.92;;
37859;SDS011;23698;52.014;5.190;2024-01-10T03:19:43;6.38;;;2.22;;
37859;SDS011;23698;52.014;5.190;2024-01-10T03:22:30;6.47;;;2.47;;
37859;SDS011;23698;52.014;5.190;2024-01-10T03:25:17;4.85;;;2.60;;
37859;SDS011;23698;52.014;5.190;2024-01-10T03:28:04;6.85;;;2.70;;
37859;SDS011;23698;52.014;5.190;2024-01-10T03:30:51;5.75;;;2.25;;
37859;SDS011;23698;52.014;5.190;2024-01-10T03:33:39;7.47;;;2.42;;
37859;SDS011;23698;52.014;5.190;2024-01-10T03:36:25;5.47;;;3.08;;
37859;SDS011;23698;52.014;5.190;2024-01-10T03:39:12;7.10;;;2.63;;
37859;SDS011;23698;52.014;5.190;2024-01-10T03:41:59;7.03;;;3.05;;
37859;SDS011;23698;52.014;5.190;2024-01-10T03:44:46;5.40;;;2.45;;
37859;SDS011;23698;52.014;5.190;2024-01-10T03:47:32;4.28;;;2.45;;
37859;SDS011;23698;52.014;5.190;2024-01-10T03:50:20;7.22;;;2.92;;
37859;SDS011;23698;52.014;5.190;2024-01-10T03:53:07;6.50;;;3.42;;
37859;SDS011;23698;52.014;5.190;2024-01-10T03:55:53;6.35;;;2.65;;
37859;SDS011;23698;52.014;5.190;2024-01-10T03:58:40;5.28;;;2.60;;
37859;SDS011;23698;52.014;5.190;2024-01-10T04:01:27;6.32;;;2.85;;
37859;SDS011;23698;52.014;5.190;2024-01-10T04:04:14;4.85;;;2.85;;
37859;SDS011;23698;52.014;5.190;2024-01-10T04:07:02;8.27;;;3.17;;
37859;SDS011;23698;52.014;5.190;2024-01-10T04:09:48;6.97;;;2.63;;
37859;SDS011;23698;52.014;5.190;2024-01-10T04:12:35;6.57;;;3.10;;
37859;SDS011;23698;52.014;5.190;2024-01-10T04:15:22;6.63;;;2.60;;
37859;SDS011;23698;52.014;5.190;2024-01-10T04:18:08;5.15;;;2.50;;
37859;SDS011;23698;52.014;5.190;2024-01-10T04:21:01;7.53;;;2.92;;
37859;SDS011;23698;52.014;5.190;2024-01-10T04:23:49;7.85;;;3.15;;
37859;SDS011;23698;52.014;5.190;2024-01-10T04:26:36;5.22;;;2.83;;
37859;SDS011;23698;52.014;5.190;2024-01-10T04:29:23;9.27;;;3.05;;
37859;SDS011;23698;52.014;5.190;2024-01-10T04:32:09;6.75;;;2.90;;
37859;SDS011;23698;52.014;5.190;2024-01-10T04:34:56;6.28;;;2.85;;
37859;SDS011;23698;52.014;5.190;2024-01-10T04:37:42;6.13;;;3.00;;
37859;SDS011;23698;52.014;5.190;2024-01-10T04:40:30;7.85;;;3.38;;
37859;SDS011;23698;52.014;5.190;2024-01-10T04:43:17;8.05;;;2.63;;
37859;SDS011;23698;52.014;5.190;2024-01-10T04:46:03;6.60;;;2.53;;
37859;SDS011;23698;52.014;5.190;2024-01-10T04:48:50;8.18;;;3.45;;
37859;SDS011;23698;52.014;5.190;2024-01-10T04:51:37;5.32;;;2.90;;
37859;SDS011;23698;52.014;5.190;2024-01-10T04:54:23;6.93;;;2.70;;
37859;SDS011;23698;52.014;5.190;2024-01-10T04:57:11;6.13;;;2.78;;
37859;SDS011;23698;52.014;5.190;2024-01-10T04:59:58;7.00;;;3.08;;
37859;SDS011;23698;52.014;5.190;2024-01-10T05:02:44;9.38;;;2.75;;
37859;SDS011;23698;52.014;5.190;2024-01-10T05:05:31;7.25;;;2.95;;
37859;SDS011;23698;52.014;5.190;2024-01-10T05:08:18;6.50;;;3.10;;
37859;SDS011;23698;52.014;5.190;2024-01-10T05:11:06;6.78;;;3.10;;
37859;SDS011;23698;52.014;5.190;2024-01-10T05:13:54;8.00;;;3.22;;
37859;SDS011;23698;52.014;5.190;2024-01-10T05:16:40;6.60;;;3.40;;
37859;SDS011;23698;52.014;5.190;2024-01-10T05:19:27;7.43;;;3.15;;
37859;SDS011;23698;52.014;5.190;2024-01-10T05:22:14;6.75;;;3.15;;
37859;SDS011;23698;52.014;5.190;2024-01-10T05:25:01;5.97;;;3.20;;
37859;SDS011;23698;52.014;5.190;2024-01-10T05:27:48;6.28;;;2.38;;
37859;SDS011;23698;52.014;5.190;2024-01-10T05:30:36;7.78;;;3.85;;
37859;SDS011;23698;52.014;5.190;2024-01-10T05:33:23;8.13;;;3.22;;
37859;SDS011;23698;52.014;5.190;2024-01-10T05:36:10;6.45;;;2.80;;
37859;SDS011;23698;52.014;5.190;2024-01-10T05:38:57;9.20;;;3.33;;
37859;SDS011;23698;52.014;5.190;2024-01-10T05:41:44;7.88;;;3.00;;
37859;SDS011;23698;52.014;5.190;2024-01-10T05:44:31;6.88;;;3.35;;
37859;SDS011;23698;52.014;5.190;2024-01-10T05:47:19;5.30;;;2.65;;
37859;SDS011;23698;52.014;5.190;2024-01-10T05:50:06;9.02;;;3.40;;
37859;SDS011;23698;52.014;5.190;2024-01-10T05:52:53;7.28;;;3.10;;
37859;SDS011;23698;52.014;5.190;2024-01-10T05:55:40;6.05;;;3.03;;
37859;SDS011;23698;52.014;5.190;2024-01-10T05:58:26;5.93;;;3.05;;
37859;SDS011;23698;52.014;5.190;2024-01-10T06:01:13;6.57;;;2.75;;
37859;SDS011;23698;52.014;5.190;2024-01-10T06:04:01;7.25;;;2.97;;
37859;SDS011;23698;52.014;5.190;2024-01-10T06:06:47;8.05;;;2.92;;
37859;SDS011;23698;52.014;5.190;2024-01-10T06:09:34;8.07;;;3.28;;
37859;SDS011;23698;52.014;5.190;2024-01-10T06:12:20;7.68;;;3.10;;
37859;SDS011;23698;52.014;5.190;2024-01-10T06:15:07;7.25;;;3.10;;
37859;SDS011;23698;52.014;5.190;2024-01-10T06:17:54;8.98;;;3.58;;
37859;SDS011;23698;52.014;5.190;2024-01-10T06:20:42;5.75;;;3.10;;
37859;SDS011;23698;52.014;5.190;2024-01-10T06:23:29;6.90;;;2.83;;
37859;SDS011;23698;52.014;5.190;2024-01-10T06:26:15;6.07;;;2.85;;
37859;SDS011;23698;52.014;5.190;2024-01-10T06:29:02;7.78;;;3.17;;
37859;SDS011;23698;52.014;5.190;2024-01-10T06:31:49;9.57;;;3.72;;
37859;SDS011;23698;52.014;5.190;2024-01-10T06:34:35;6.57;;;2.92;;
37859;SDS011;23698;52.014;5.190;2024-01-10T06:37:23;6.30;;;2.90;;
37859;SDS011;23698;52.014;5.190;2024-01-10T06:40:10;6.85;;;3.10;;
37859;SDS011;23698;52.014;5.190;2024-01-10T06:42:57;7.32;;;3.90;;
37859;SDS011;23698;52.014;5.190;2024-01-10T06:45:44;5.90;;;3.13;;
37859;SDS011;23698;52.014;5.190;2024-01-10T06:48:31;5.93;;;3.30;;
37859;SDS011;23698;52.014;5.190;2024-01-10T06:51:18;6.82;;;3.17;;
37859;SDS011;23698;52.014;5.190;2024-01-10T06:54:06;10.65;;;3.17;;
37859;SDS011;23698;52.014;5.190;2024-01-10T06:56:54;6.85;;;3.25;;
37859;SDS011;23698;52.014;5.190;2024-01-10T06:59:40;9.45;;;3.58;;
37859;SDS011;23698;52.014;5.190;2024-01-10T07:02:28;10.43;;;4.10;;
37859;SDS011;23698;52.014;5.190;2024-01-10T07:05:15;7.95;;;3.83;;
37859;SDS011;23698;52.014;5.190;2024-01-10T07:08:02;8.20;;;3.38;;
37859;SDS011;23698;52.014;5.190;2024-01-10T07:10:50;9.65;;;3.97;;
37859;SDS011;23698;52.014;5.190;2024-01-10T07:13:37;6.90;;;3.58;;
37859;SDS011;23698;52.014;5.190;2024-01-10T07:16:23;9.98;;;4.00;;
37859;SDS011;23698;52.014;5.190;2024-01-10T07:19:10;8.13;;;3.75;;
37859;SDS011;23698;52.014;5.190;2024-01-10T07:21:58;7.97;;;3.65;;
37859;SDS011;23698;52.014;5.190;2024-01-10T07:24:45;7.63;;;3.28;;
37859;SDS011;23698;52.014;5.190;2024-01-10T07:27:33;8.32;;;3.38;;
37859;SDS011;23698;52.014;5.190;2024-01-10T07:30:22;7.88;;;3.72;;
37859;SDS011;23698;52.014;5.190;2024-01-10T07:33:09;8.18;;;3.78;;
37859;SDS011;23698;52.014;5.190;2024-01-10T07:35:56;9.45;;;3.92;;
37859;SDS011;23698;52.014;5.190;2024-01-10T07:38:43;9.27;;;3.70;;
37859;SDS011;23698;52.014;5.190;2024-01-10T07:41:30;8.13;;;4.47;;
37859;SDS011;23698;52.014;5.190;2024-01-10T07:44:19;8.63;;;3.33;;
37859;SDS011;23698;52.014;5.190;2024-01-10T07:47:05;7.53;;;3.83;;
37859;SDS011;23698;52.014;5.190;2024-01-10T07:49:53;8.40;;;4.03;;
37859;SDS011;23698;52.014;5.190;2024-01-10T07:52:39;8.43;;;3.88;;
37859;SDS011;23698;52.014;5.190;2024-01-10T07:55:27;9.07;;;3.80;;
37859;SDS011;23698;52.014;5.190;2024-01-10T07:58:14;7.63;;;3.50;;
37859;SDS011;23698;52.014;5.190;2024-01-10T08:01:03;12.07;;;4.00;;
37859;SDS011;23698;52.014;5.190;2024-01-10T08:03:50;10.25;;;4.15;;
37859;SDS011;23698;52.014;5.190;2024-01-10T08:06:36;9.80;;;4.03;;
37859;SDS011;23698;52.014;5.190;2024-01-10T08:09:22;9.07;;;3.88;;
37859;SDS011;23698;52.014;5.190;2024-01-10T08:12:09;8.98;;;3.83;;
37859;SDS011;23698;52.014;5.190;2024-01-10T08:14:57;13.35;;;4.70;;
37859;SDS011;23698;52.014;5.190;2024-01-10T08:17:45;6.63;;;3.45;;
37859;SDS011;23698;52.014;5.190;2024-01-10T08:20:31;9.77;;;3.92;;
37859;SDS011;23698;52.014;5.190;2024-01-10T08:23:18;8.27;;;3.63;;
37859;SDS011;23698;52.014;5.190;2024-01-10T08:26:06;11.02;;;3.95;;
37859;SDS011;23698;52.014;5.190;2024-01-10T08:28:53;9.38;;;3.70;;
37859;SDS011;23698;52.014;5.190;2024-01-10T08:31:40;9.00;;;4.03;;
37859;SDS011;23698;52.014;5.190;2024-01-10T08:34:28;10.65;;;4.35;;
37859;SDS011;23698;52.014;5.190;2024-01-10T08:37:15;8.75;;;4.22;;
37859;SDS011;23698;52.014;5.190;2024-01-10T08:40:02;11.35;;;4.32;;
37859;SDS011;23698;52.014;5.190;2024-01-10T08:42:53;11.57;;;4.00;;
37859;SDS011;23698;52.014;5.190;2024-01-10T08:45:40;8.93;;;4.57;;
37859;SDS011;23698;52.014;5.190;2024-01-10T08:48:27;11.82;;;4.43;;
37859;SDS011;23698;52.014;5.190;2024-01-10T08:51:14;9.48;;;4.15;;
37859;SDS011;23698;52.014;5.190;2024-01-10T08:54:02;13.50;;;4.13;;
37859;SDS011;23698;52.014;5.190;2024-01-10T08:56:49;11.60;;;4.72;;
37859;SDS011;23698;52.014;5.190;2024-01-10T08:59:36;10.55;;;4.28;;
37859;SDS011;23698;52.014;5.190;2024-01-10T09:02:22;10.68;;;4.75;;
37859;SDS011;23698;52.014;5.190;2024-01-10T09:05:09;10.27;;;4.90;;
37859;SDS011;23698;52.014;5.190;2024-01-10T09:07:58;10.00;;;4.47;;
37859;SDS011;23698;52.014;5.190;2024-01-10T09:10:45;10.15;;;4.18;;
37859;SDS011;23698;52.014;5.190;2024-01-10T09:13:34;9.90;;;4.13;;
37859;SDS011;23698;52.014;5.190;2024-01-10T09:16:23;8.00;;;4.03;;
37859;SDS011;23698;52.014;5.190;2024-01-10T09:19:10;8.50;;;4.00;;
37859;SDS011;23698;52.014;5.190;2024-01-10T09:21:58;8.35;;;4.07;;
37859;SDS011;23698;52.014;5.190;2024-01-10T09:24:46;10.80;;;4.28;;
37859;SDS011;23698;52.014;5.190;2024-01-10T09:27:33;9.25;;;4.53;;
37859;SDS011;23698;52.014;5.190;2024-01-10T09:30:20;12.65;;;4.32;;
37859;SDS011;23698;52.014;5.190;2024-01-10T09:33:09;11.57;;;4.72;;
37859;SDS011;23698;52.014;5.190;2024-01-10T09:35:56;11.82;;;4.53;;
37859;SDS011;23698;52.014;5.190;2024-01-10T09:38:46;10.43;;;4.07;;
37859;SDS011;23698;52.014;5.190;2024-01-10T09:41:34;12.63;;;4.60;;
37859;SDS011;23698;52.014;5.190;2024-01-10T09:44:26;8.73;;;4.40;;
37859;SDS011;23698;52.014;5.190;2024-01-10T09:47:15;10.77;;;4.50;;
37859;SDS011;23698;52.014;5.190;2024-01-10T09:50:01;11.25;;;4.80;;
37859;SDS011;23698;52.014;5.190;2024-01-10T09:52:50;9.32;;;4.47;;
37859;SDS011;23698;52.014;5.190;2024-01-10T09:55:38;10.20;;;4.28;;
37859;SDS011;23698;52.014;5.190;2024-01-10T09:58:26;8.60;;;4.07;;
37859;SDS011;23698;52.014;5.190;2024-01-10T10:01:13;11.77;;;4.70;;
37859;SDS011;23698;52.014;5.190;2024-01-10T10:04:00;10.20;;;4.55;;
37859;SDS011;23698;52.014;5.190;2024-01-10T10:06:48;9.13;;;3.65;;
37859;SDS011;23698;52.014;5.190;2024-01-10T10:09:45;9.93;;;4.43;;
37859;SDS011;23698;52.014;5.190;2024-01-10T10:12:41;10.18;;;4.47;;
37859;SDS011;23698;52.014;5.190;2024-01-10T10:15:30;9.55;;;4.05;;
37859;SDS011;23698;52.014;5.190;2024-01-10T10:18:17;8.80;;;3.90;;
37859;SDS011;23698;52.014;5.190;2024-01-10T10:21:07;9.25;;;4.38;;
37859;SDS011;23698;52.014;5.190;2024-01-10T10:23:58;9.25;;;4.40;;
37859;SDS011;23698;52.014;5.190;2024-01-10T10:26:46;10.68;;;4.22;;
37859;SDS011;23698;52.014;5.190;2024-01-10T10:29:32;12.80;;;4.78;;
37859;SDS011;23698;52.014;5.190;2024-01-10T10:32:21;10.20;;;4.55;;
37859;SDS011;23698;52.014;5.190;2024-01-10T10:35:07;11.07;;;4.60;;
37859;SDS011;23698;52.014;5.190;2024-01-10T10:38:14;10.15;;;4.35;;
37859;SDS011;23698;52.014;5.190;2024-01-10T10:41:00;9.70;;;4.88;;
37859;SDS011;23698;52.014;5.190;2024-01-10T10:43:47;9.82;;;4.57;;
37859;SDS011;23698;52.014;5.190;2024-01-10T10:46:36;11.32;;;4.82;;
37859;SDS011;23698;52.014;5.190;2024-01-10T10:49:27;8.95;;;4.57;;
37859;SDS011;23698;52.014;5.190;2024-01-10T10:52:17;8.70;;;4.85;;
37859;SDS011;23698;52.014;5.190;2024-01-10T10:55:04;8.82;;;4.45;;
37859;SDS011;23698;52.014;5.190;2024-01-10T10:57:51;9.57;;;4.63;;
37859;SDS011;23698;52.014;5.190;2024-01-10T11:03:39;8.57;;;4.30;;
37859;SDS011;23698;52.014;5.190;2024-01-10T11:06:29;9.52;;;4.15;;
37859;SDS011;23698;52.014;5.190;2024-01-10T11:09:17;8.07;;;4.50;;
37859;SDS011;23698;52.014;5.190;2024-01-10T11:12:11;10.15;;;4.40;;
37859;SDS011;23698;52.014;5.190;2024-01-10T11:15:14;15.73;;;4.97;;
37859;SDS011;23698;52.014;5.190;2024-01-10T11:21:37;10.02;;;4.03;;
37859;SDS011;23698;52.014;5.190;2024-01-10T11:24:31;12.43;;;4.68;;
37859;SDS011;23698;52.014;5.190;2024-01-10T11:27:18;12.40;;;4.53;;
37859;SDS011;23698;52.014;5.190;2024-01-10T11:30:05;8.93;;;4.47;;
37859;SDS011;23698;52.014;5.190;2024-01-10T11:32:55;8.15;;;4.53;;
37859;SDS011;23698;52.014;5.190;2024-01-10T11:35:42;10.05;;;5.03;;
37859;SDS011;23698;52.014;5.190;2024-01-10T11:38:57;8.63;;;4.60;;
37859;SDS011;23698;52.014;5.190;2024-01-10T11:41:46;10.95;;;4.70;;
37859;SDS011;23698;52.014;5.190;2024-01-10T11:44:32;8.80;;;4.50;;
37859;SDS011;23698;52.014;5.190;2024-01-10T11:47:20;8.23;;;4.30;;
37859;SDS011;23698;52.014;5.190;2024-01-10T11:50:07;9.73;;;5.10;;
37859;SDS011;23698;52.014;5.190;2024-01-10T11:52:55;12.73;;;5.32;;
37859;SDS011;23698;52.014;5.190;2024-01-10T11:55:49;9.93;;;4.95;;
37859;SDS011;23698;52.014;5.190;2024-01-10T12:01:57;10.48;;;4.55;;
37859;SDS011;23698;52.014;5.190;2024-01-10T12:04:45;9.73;;;4.88;;
37859;SDS011;23698;52.014;5.190;2024-01-10T12:07:33;15.00;;;4.85;;
37859;SDS011;23698;52.014;5.190;2024-01-10T12:10:19;14.77;;;5.32;;
37859;SDS011;23698;52.014;5.190;2024-01-10T12:13:07;10.00;;;5.28;;
37859;SDS011;23698;52.014;5.190;2024-01-10T12:15:54;11.75;;;5.00;;
37859;SDS011;23698;52.014;5.190;2024-01-10T12:18:41;12.60;;;5.35;;
37859;SDS011;23698;52.014;5.190;2024-01-10T12:21:28;9.02;;;4.55;;
37859;SDS011;23698;52.014;5.190;2024-01-10T12:24:15;12.60;;;5.20;;
37859;SDS011;23698;52.014;5.190;2024-01-10T12:27:02;14.23;;;4.60;;
37859;SDS011;23698;52.014;5.190;2024-01-10T12:29:50;12.30;;;5.65;;
37859;SDS011;23698;52.014;5.190;2024-01-10T12:32:38;15.30;;;5.35;;
37859;SDS011;23698;52.014;5.190;2024-01-10T12:35:25;9.63;;;4.97;;
37859;SDS011;23698;52.014;5.190;2024-01-10T12:38:11;10.00;;;5.15;;
37859;SDS011;23698;52.014;5.190;2024-01-10T12:40:58;12.38;;;5.53;;
37859;SDS011;23698;52.014;5.190;2024-01-10T12:43:48;11.35;;;4.97;;
37859;SDS011;23698;52.014;5.190;2024-01-10T12:46:47;10.32;;;4.72;;
37859;SDS011;23698;52.014;5.190;2024-01-10T12:49:36;13.27;;;4.90;;
37859;SDS011;23698;52.014;5.190;2024-01-10T12:52:23;10.25;;;4.95;;
37859;SDS011;23698;52.014;5.190;2024-01-10T12:55:10;10.60;;;5.20;;
37859;SDS011;23698;52.014;5.190;2024-01-10T12:57:57;13.40;;;5.03;;
37859;SDS011;23698;52.014;5.190;2024-01-10T13:00:49;10.52;;;4.60;;
37859;SDS011;23698;52.014;5.190;2024-01-10T13:03:37;13.60;;;5.07;;
37859;SDS011;23698;52.014;5.190;2024-01-10T13:06:24;9.45;;;4.55;;
37859;SDS011;23698;52.014;5.190;2024-01-10T13:09:11;15.02;;;5.70;;
37859;SDS011;23698;52.014;5.190;2024-01-10T13:11:57;13.05;;;5.18;;
37859;SDS011;23698;52.014;5.190;2024-01-10T13:14:44;11.40;;;5.25;;
37859;SDS011;23698;52.014;5.190;2024-01-10T13:17:31;14.27;;;5.95;;
37859;SDS011;23698;52.014;5.190;2024-01-10T13:20:20;12.77;;;5.20;;
37859;SDS011;23698;52.014;5.190;2024-01-10T13:23:06;10.15;;;5.18;;
37859;SDS011;23698;52.014;5.190;2024-01-10T13:25:53;9.20;;;4.68;;
37859;SDS011;23698;52.014;5.190;2024-01-10T13:28:40;10.02;;;5.18;;
37859;SDS011;23698;52.014;5.190;2024-01-10T13:31:27;10.52;;;5.50;;
37859;SDS011;23698;52.014;5.190;2024-01-10T13:34:13;9.00;;;4.82;;
37859;SDS011;23698;52.014;5.190;2024-01-10T13:37:01;8.57;;;5.18;;
37859;SDS011;23698;52.014;5.190;2024-01-10T13:39:48;12.90;;;4.57;;
37859;SDS011;23698;52.014;5.190;2024-01-10T13:42:34;10.25;;;4.78;;
37859;SDS011;23698;52.014;5.190;2024-01-10T13:45:22;13.13;;;5.05;;
37859;SDS011;23698;52.014;5.190;2024-01-10T13:48:08;10.02;;;4.93;;
37859;SDS011;23698;52.014;5.190;2024-01-10T13:50:56;11.45;;;5.40;;
37859;SDS011;23698;52.014;5.190;2024-01-10T13:53:44;11.10;;;5.38;;
37859;SDS011;23698;52.014;5.190;2024-01-10T13:56:30;11.25;;;4.78;;
37859;SDS011;23698;52.014;5.190;2024-01-10T13:59:19;13.20;;;5.30;;
37859;SDS011;23698;52.014;5.190;2024-01-10T14:02:06;12.68;;;5.63;;
37859;SDS011;23698;52.014;5.190;2024-01-10T14:04:53;12.90;;;5.25;;
37859;SDS011;23698;52.014;5.190;2024-01-10T14:07:42;11.30;;;4.18;;
37859;SDS011;23698;52.014;5.190;2024-01-10T14:10:33;12.55;;;4.97;;
37859;SDS011;23698;52.014;5.190;2024-01-10T14:13:19;11.52;;;5.38;;
37859;SDS011;23698;52.014;5.190;2024-01-10T14:16:08;8.90;;;4.63;;
37859;SDS011;23698;52.014;5.190;2024-01-10T14:18:55;13.23;;;5.50;;
37859;SDS011;23698;52.014;5.190;2024-01-10T14:21:43;12.52;;;4.80;;
37859;SDS011;23698;52.014;5.190;2024-01-10T14:24:30;11.30;;;5.25;;
37859;SDS011;23698;52.014;5.190;2024-01-10T14:27:19;10.43;;;5.38;;
37859;SDS011;23698;52.014;5.190;2024-01-10T14:30:06;11.52;;;4.80;;
37859;SDS011;23698;52.014;5.190;2024-01-10T14:32:54;11.88;;;5.78;;
37859;SDS011;23698;52.014;5.190;2024-01-10T14:35:41;11.48;;;5.85;;
37859;SDS011;23698;52.014;5.190;2024-01-10T14:38:27;10.98;;;5.70;;
37859;SDS011;23698;52.014;5.190;2024-01-10T14:41:14;13.40;;;4.90;;
37859;SDS011;23698;52.014;5.190;2024-01-10T14:44:02;8.77;;;5.18;;
37859;SDS011;23698;52.014;5.190;2024-01-10T14:46:49;9.85;;;4.95;;
37859;SDS011;23698;52.014;5.190;2024-01-10T14:49:47;17.58;;;5.30;;
37859;SDS011;23698;52.014;5.190;2024-01-10T14:52:34;11.85;;;5.00;;
37859;SDS011;23698;52.014;5.190;2024-01-10T14:55:20;12.73;;;4.72;;
37859;SDS011;23698;52.014;5.190;2024-01-10T14:58:08;13.63;;;6.53;;
37859;SDS011;23698;52.014;5.190;2024-01-10T15:00:56;13.60;;;5.72;;
37859;SDS011;23698;52.014;5.190;2024-01-10T15:03:42;12.68;;;5.20;;
37859;SDS011;23698;52.014;5.190;2024-01-10T15:06:29;10.32;;;5.40;;
37859;SDS011;23698;52.014;5.190;2024-01-10T15:09:16;13.32;;;5.90;;
37859;SDS011;23698;52.014;5.190;2024-01-10T15:12:04;12.77;;;5.28;;
37859;SDS011;23698;52.014;5.190;2024-01-10T15:14:54;13.05;;;5.15;;
37859;SDS011;23698;52.014;5.190;2024-01-10T15:17:46;11.48;;;5.70;;
37859;SDS011;23698;52.014;5.190;2024-01-10T15:20:33;10.70;;;4.93;;
37859;SDS011;23698;52.014;5.190;2024-01-10T15:23:20;9.35;;;5.28;;
37859;SDS011;23698;52.014;5.190;2024-01-10T15:26:06;11.25;;;5.40;;
37859;SDS011;23698;52.014;5.190;2024-01-10T15:28:53;13.07;;;5.60;;
37859;SDS011;23698;52.014;5.190;2024-01-10T15:31:40;13.40;;;5.32;;
37859;SDS011;23698;52.014;5.190;2024-01-10T15:34:29;10.18;;;5.05;;
37859;SDS011;23698;52.014;5.190;2024-01-10T15:37:15;12.73;;;5.70;;
37859;SDS011;23698;52.014;5.190;2024-01-10T15:40:02;12.40;;;5.43;;
37859;SDS011;23698;52.014;5.190;2024-01-10T15:42:53;13.10;;;5.47;;
37859;SDS011;23698;52.014;5.190;2024-01-10T15:45:40;13.63;;;5.60;;
37859;SDS011;23698;52.014;5.190;2024-01-10T15:48:27;11.45;;;5.30;;
37859;SDS011;23698;52.014;5.190;2024-01-10T15:51:15;11.70;;;4.90;;
37859;SDS011;23698;52.014;5.190;2024-01-10T15:54:01;14.77;;;4.93;;
37859;SDS011;23698;52.014;5.190;2024-01-10T15:56:48;17.13;;;5.82;;
37859;SDS011;23698;52.014;5.190;2024-01-10T15:59:35;11.73;;;4.70;;
37859;SDS011;23698;52.014;5.190;2024-01-10T16:02:22;11.65;;;5.70;;
37859;SDS011;23698;52.014;5.190;2024-01-10T16:05:09;14.65;;;5.97;;
37859;SDS011;23698;52.014;5.190;2024-01-10T16:07:57;16.08;;;6.13;;
37859;SDS011;23698;52.014;5.190;2024-01-10T16:10:43;13.32;;;5.57;;
37859;SDS011;23698;52.014;5.190;2024-01-10T16:13:30;17.05;;;7.78;;
37859;SDS011;23698;52.014;5.190;2024-01-10T16:16:19;24.75;;;10.52;;
37859;SDS011;23698;52.014;5.190;2024-01-10T16:19:08;22.13;;;8.40;;
37859;SDS011;23698;52.014;5.190;2024-01-10T16:21:57;16.30;;;6.25;;
37859;SDS011;23698;52.014;5.190;2024-01-10T16:24:45;15.40;;;6.78;;
37859;SDS011;23698;52.014;5.190;2024-01-10T16:27:31;17.30;;;8.63;;
37859;SDS011;23698;52.014;5.190;2024-01-10T16:30:18;17.13;;;6.47;;
37859;SDS011;23698;52.014;5.190;2024-01-10T16:33:05;15.07;;;5.70;;
37859;SDS011;23698;52.014;5.190;2024-01-10T16:35:52;14.30;;;5.32;;
37859;SDS011;23698;52.014;5.190;2024-01-10T16:38:39;12.07;;;6.20;;
37859;SDS011;23698;52.014;5.190;2024-01-10T16:41:27;17.50;;;6.18;;
37859;SDS011;23698;52.014;5.190;2024-01-10T16:44:14;16.00;;;6.20;;
37859;SDS011;23698;52.014;5.190;2024-01-10T16:47:06;20.52;;;8.18;;
37859;SDS011;23698;52.014;5.190;2024-01-10T16:49:54;17.95;;;6.90;;
37859;SDS011;23698;52.014;5.190;2024-01-10T16:52:40;16.13;;;7.18;;
37859;SDS011;23698;52.014;5.190;2024-01-10T16:55:27;14.18;;;5.57;;